< < Back
Terminal Aerodrome Forecast


Current Version              Previous Versions:   1  2  3  4  5  6  7  8  9  

Terminal Aerodrome Forecast

464
FTUS44 KMOB 011700
TAFMOB
TAF
KMOB 011721Z 0118/0218 13011G20KT P6SM VCTS BKN035CB BKN250
      TEMPO 0118/0122 BKN030CB
     FM020100 17006KT P6SM BKN250
     FM021400 15006KT P6SM VCSH BKN015=



Latest METAR

465
SAUS80 KWBC 011900 RRI
MTRMOB
METAR KMOB 011856Z 16008KT 10SM BKN040 BKN250 32/23 A3008 RMK AO2 SLP182
T03220228 $


USA.gov is the U.S. government's official web portal to all federal, state and local government web resources and services.